Time;durP1;ratioP1;P1;durP2;ratioP2;P2;SDS_P1;SDS_P2;PMS_P1;PMS_P2;Temp;Humidity;BMP_temperature;BMP_pressure;BME280_temperature;BME280_humidity;BME280_pressure;Samples;Min_cycle;Max_cycle;Signal;HPM_P1;HPM_P2
2022/06/01 00:01:01;;;;;;;29.45;27.75;;;;;;;20.61;46.04;101223.63;5034053;28;20508;-79
2022/06/01 00:03:30;;;;;;;29.92;28.33;;;;;;;20.62;45.49;101224.47;5033943;28;20033;-80
2022/06/01 00:05:55;;;;;;;29.27;27.65;;;;;;;20.62;45.49;101221.72;5033970;28;20044;-80
2022/06/01 00:08:22;;;;;;;28.88;27.38;;;;;;;20.62;45.99;101221.72;5033642;28;20041;-80
2022/06/01 00:10:48;;;;;;;30.10;28.50;;;;;;;20.62;45.70;101218.97;5034364;28;20061;-79
2022/06/01 00:13:14;;;;;;;29.48;27.98;;;;;;;20.60;45.37;101219.28;5034814;28;20565;-80
2022/06/01 00:15:39;;;;;;;30.25;28.42;;;;;;;20.60;45.76;101218.47;5033409;28;20095;-79
2022/06/01 00:18:05;;;;;;;29.52;27.85;;;;;;;20.59;45.87;101225.03;5034898;28;20044;-80
2022/06/01 00:20:30;;;;;;;30.83;29.10;;;;;;;20.60;45.77;101226.69;5037229;28;20033;-80
2022/06/01 00:22:56;;;;;;;29.25;27.65;;;;;;;20.60;45.58;101224.75;5051312;28;20381;-80
2022/06/01 00:25:23;;;;;;;30.63;29.02;;;;;;;20.58;45.60;101228.91;5035165;28;20411;-80
2022/06/01 00:27:49;;;;;;;30.10;28.58;;;;;;;20.58;45.69;101224.25;5033208;28;20118;-80
2022/06/01 00:30:15;;;;;;;28.77;27.08;;;;;;;20.58;45.52;101226.97;5034696;28;20061;-80
2022/06/01 00:32:41;;;;;;;31.08;29.38;;;;;;;20.57;45.32;101238.28;5034862;28;20033;-79
2022/06/01 00:35:08;;;;;;;28.88;27.38;;;;;;;20.58;45.60;101231.66;5034422;28;20045;-79
2022/06/01 00:37:34;;;;;;;30.20;28.50;;;;;;;20.56;45.26;101231.13;5034593;28;20029;-79
2022/06/01 00:40:00;;;;;;;30.08;28.27;;;;;;;20.57;45.43;101227.31;5049446;28;20162;-79
2022/06/01 00:42:28;;;;;;;29.25;27.75;;;;;;;20.56;45.17;101223.72;5016540;28;20180;-79
2022/06/01 00:44:54;;;;;;;;;;;;;;;20.56;45.30;101229.19;5033656;28;20146;-81
2022/06/01 00:47:21;;;;;;;30.13;28.52;;;;;;;20.55;45.33;101230.34;5049146;28;19917;-79
2022/06/01 00:49:54;;;;;;;30.25;28.63;;;;;;;20.54;45.78;101231.41;5034308;28;20541;-80
2022/06/01 00:52:35;;;;;;;30.35;28.65;;;;;;;20.53;45.36;101225.09;5033165;28;20442;-79
2022/06/01 00:55:12;;;;;;;29.63;28.13;;;;;;;20.53;45.51;101222.34;5034057;28;20037;-79
2022/06/01 00:57:39;;;;;;;29.50;27.90;;;;;;;20.52;45.37;101225.41;5033002;28;20033;-79
2022/06/01 01:00:15;;;;;;;28.98;27.38;;;;;;;20.53;45.62;101224.28;5032758;28;20374;-80
2022/06/01 01:02:40;;;;;;;29.83;28.23;;;;;;;20.53;45.38;101218.78;5033979;28;20033;-79
2022/06/01 01:05:09;;;;;;;29.38;27.77;;;;;;;20.53;45.61;101227.84;5034068;28;20033;-80
2022/06/01 01:07:36;;;;;;;29.52;27.95;;;;;;;20.53;45.42;101227.03;5032739;28;20386;-80
2022/06/01 01:10:03;;;;;;;30.15;28.50;;;;;;;20.51;45.75;101234.75;5033810;28;20147;-79
2022/06/01 01:12:56;;;;;;;29.48;27.85;;;;;;;20.51;45.68;101229.25;5033864;28;20036;-79
2022/06/01 01:15:16;;;;;;;31.15;29.50;;;;;;;20.48;45.42;101222.44;5046342;28;20046;-78
2022/06/01 01:17:44;;;;;;;30.30;28.70;;;;;;;20.49;45.95;101220.53;5032481;28;20038;-79
2022/06/01 01:20:10;;;;;;;30.67;29.05;;;;;;;20.49;45.57;101224.06;5032441;28;20043;-79
2022/06/01 01:23:21;;;;;;;29.88;28.35;;;;;;;20.49;45.52;101217.78;5032056;28;20091;-77
2022/06/01 01:25:48;;;;;;;30.15;28.55;;;;;;;20.48;45.76;101221.63;5032073;28;20370;-79
2022/06/01 01:28:14;;;;;;;30.48;28.88;;;;;;;20.49;45.75;101215.03;5033357;28;20030;-79
2022/06/01 01:30:48;;;;;;;30.35;28.70;;;;;;;20.49;45.51;101209.53;5049020;28;20110;-78
2022/06/01 01:33:20;;;;;;;28.10;26.60;;;;;;;20.48;45.50;101214.19;5032576;28;20030;-77
2022/06/01 01:35:52;;;;;;;29.83;28.15;;;;;;;20.47;45.35;101220.00;5032529;28;20484;-78
2022/06/01 01:38:44;;;;;;;29.15;27.65;;;;;;;20.46;45.46;101218.34;5032128;28;20042;-79
2022/06/01 01:41:37;;;;;;;29.48;27.90;;;;;;;20.46;45.78;101219.19;5033511;28;20100;-78
2022/06/01 01:44:29;;;;;;;29.73;28.13;;;;;;;20.46;45.65;101226.59;5032345;28;20040;-79
2022/06/01 01:46:56;;;;;;;30.17;28.55;;;;;;;20.45;45.76;101217.53;5033777;28;20041;-78
2022/06/01 01:49:31;;;;;;;28.42;26.95;;;;;;;20.45;45.32;101220.28;5033388;28;20037;-78
2022/06/01 01:52:02;;;;;;;30.80;29.17;;;;;;;20.45;45.65;101216.72;5033310;28;20095;-78
2022/06/01 01:54:48;;;;;;;29.73;28.10;;;;;;;20.44;45.44;101215.94;5032972;28;20040;-79
2022/06/01 01:57:51;;;;;;;30.15;28.45;;;;;;;20.45;45.37;101223.03;5032703;28;20029;-78
2022/06/01 02:00:30;;;;;;;29.85;28.35;;;;;;;20.44;45.51;101217.84;5033376;28;20039;-78
2022/06/01 02:03:17;;;;;;;;;;;;;;;20.43;45.70;101211.53;5032426;28;20120;-78
2022/06/01 02:06:08;;;;;;;30.33;28.52;;;;;;;20.42;45.41;101217.34;5032303;28;19920;-78
2022/06/01 02:08:41;;;;;;;29.20;27.70;;;;;;;20.41;45.76;101216.53;5033018;28;20408;-77
2022/06/01 02:14:10;;;;;;;28.83;27.25;;;;;;;20.41;45.31;101212.94;5033900;28;20135;-77
2022/06/01 02:16:40;;;;;;;29.30;27.80;;;;;;;20.39;45.47;101210.50;5033566;28;20038;-77
2022/06/01 02:19:12;;;;;;;29.85;28.02;;;;;;;20.40;45.63;101217.63;5034243;28;20044;-78
2022/06/01 02:21:37;;;;;;;29.17;27.63;;;;;;;20.41;45.55;101226.66;5036699;28;20487;-78
2022/06/01 02:24:03;;;;;;;30.15;28.55;;;;;;;20.41;45.54;101224.75;5031974;28;20048;-77
2022/06/01 02:26:29;;;;;;;30.38;28.77;;;;;;;20.39;45.21;101216.00;5048544;28;20115;-78
2022/06/01 02:29:18;;;;;;;31.20;29.50;;;;;;;20.40;45.29;101217.63;5031888;28;20120;-78
2022/06/01 02:31:45;;;;;;;30.30;28.58;;;;;;;20.40;45.41;101212.13;5031795;28;20513;-77
2022/06/01 02:34:11;;;;;;;29.48;27.90;;;;;;;20.38;45.34;101217.09;5033437;28;20034;-78
2022/06/01 02:36:42;;;;;;;30.63;29.02;;;;;;;20.38;45.56;101211.59;5035967;28;20029;-78
2022/06/01 02:39:13;;;;;;;29.58;27.95;;;;;;;20.38;45.81;101214.34;5036246;28;20055;-78
2022/06/01 02:44:23;;;;;;;28.98;27.48;;;;;;;20.36;45.38;101211.13;5036929;28;20124;-78
2022/06/01 02:46:48;;;;;;;30.75;29.08;;;;;;;20.36;45.48;101208.38;5036484;28;20026;-78
2022/06/01 02:49:17;;;;;;;30.80;29.10;;;;;;;20.37;45.45;101210.00;5051722;28;20036;-79
2022/06/01 02:51:43;;;;;;;29.30;27.75;;;;;;;20.37;45.31;101203.69;5035318;28;20095;-83
2022/06/01 02:54:09;;;;;;;31.73;30.02;;;;;;;20.37;45.19;101203.69;5035517;28;20083;-78
2022/06/01 02:56:35;;;;;;;29.45;27.73;;;;;;;20.36;45.37;101197.41;5036314;28;20432;-79
2022/06/01 02:59:00;;;;;;;32.22;30.35;;;;;;;20.37;45.30;101201.75;5051385;28;20539;-78
2022/06/01 03:01:26;;;;;;;30.52;28.83;;;;;;;20.36;45.33;101200.16;5051583;28;20397;-79
2022/06/01 03:03:53;;;;;;;30.77;29.08;;;;;;;20.36;45.48;101202.03;5036154;28;20091;-81
2022/06/01 03:06:19;;;;;;;29.63;27.73;;;;;;;20.36;45.22;101191.91;5035791;28;20029;-77
2022/06/01 03:08:45;;;;;;;29.30;27.70;;;;;;;20.36;45.58;101200.16;5036060;28;20105;-83
2022/06/01 03:11:12;;;;;;;30.42;28.73;;;;;;;20.34;45.06;101212.53;5035939;28;20041;-79
2022/06/01 03:13:38;;;;;;;29.80;28.20;;;;;;;20.35;45.10;101214.16;5035951;28;20033;-78
2022/06/01 03:16:03;;;;;;;31.48;29.65;;;;;;;20.34;45.14;101207.03;5035610;28;20126;-78
2022/06/01 03:18:31;;;;;;;30.20;28.50;;;;;;;20.34;45.21;101210.59;5035892;28;20388;-77
2022/06/01 03:20:57;;;;;;;31.83;30.13;;;;;;;20.34;45.46;101213.34;5050623;28;20030;-78
2022/06/01 03:23:23;;;;;;;29.13;27.63;;;;;;;20.33;45.46;101214.44;5036111;28;20067;-78
2022/06/01 03:25:48;;;;;;;29.92;28.23;;;;;;;20.34;45.39;101213.34;5050789;28;20473;-82
2022/06/01 03:28:14;;;;;;;30.40;28.80;;;;;;;20.32;45.39;101218.28;5034382;28;20425;-79
2022/06/01 03:30:39;;;;;;;30.25;28.65;;;;;;;20.32;45.26;101219.09;5051517;28;20038;-77
2022/06/01 03:33:05;;;;;;;30.35;28.55;;;;;;;20.32;45.41;101224.59;5036083;28;20029;-77
2022/06/01 03:35:32;;;;;;;29.85;28.25;;;;;;;20.31;45.19;101225.72;5051276;28;20470;-78
2022/06/01 03:37:58;;;;;;;31.23;29.42;;;;;;;20.31;45.40;101222.97;5035353;28;20477;-77
2022/06/01 03:40:26;;;;;;;30.13;28.52;;;;;;;20.31;45.45;101216.69;5036365;28;20033;-78
2022/06/01 03:42:51;;;;;;;30.13;28.50;;;;;;;20.30;45.28;101218.59;5051201;28;20053;-78
2022/06/01 03:48:01;;;;;;;32.40;30.60;;;;;;;20.29;45.25;101216.97;5035699;28;20044;-77
2022/06/01 03:50:28;;;;;;;29.88;28.25;;;;;;;20.30;45.55;101221.31;5034988;28;20041;-77
2022/06/01 03:52:53;;;;;;;31.10;29.33;;;;;;;20.29;45.49;101219.72;5017488;28;20042;-77
2022/06/01 03:55:20;;;;;;;30.30;28.50;;;;;;;20.28;45.10;101218.06;5036007;28;20033;-78
2022/06/01 03:57:46;;;;;;;28.35;26.85;;;;;;;20.27;45.31;101216.44;5035156;28;20084;-77
2022/06/01 04:00:15;;;;;;;30.55;28.85;;;;;;;20.29;45.13;101221.66;5050497;28;20034;-77
2022/06/01 04:02:41;;;;;;;29.77;28.13;;;;;;;20.29;45.17;101221.66;5035035;28;20037;-80
2022/06/01 04:05:08;;;;;;;29.48;27.77;;;;;;;20.29;45.52;101229.88;5034663;28;20026;-78
2022/06/01 04:07:33;;;;;;;29.67;28.08;;;;;;;20.27;45.28;101230.16;5033741;28;20048;-77
2022/06/01 04:09:59;;;;;;;30.30;28.70;;;;;;;20.26;45.21;101223.06;5050831;28;20461;-77
2022/06/01 04:12:24;;;;;;;29.45;27.85;;;;;;;20.27;45.53;101230.16;5050493;28;20033;-77
2022/06/01 04:14:50;;;;;;;29.55;27.85;;;;;;;20.26;45.05;101225.78;5051010;28;20033;-81
2022/06/01 04:17:15;;;;;;;29.48;27.88;;;;;;;20.26;45.44;101225.78;5033909;28;20033;-77
2022/06/01 04:19:41;;;;;;;29.25;27.60;;;;;;;20.27;45.29;101229.34;5050820;28;20035;-77
2022/06/01 04:22:08;;;;;;;30.05;28.35;;;;;;;20.24;45.15;101230.75;5035779;28;20087;-77
2022/06/01 04:24:34;;;;;;;29.65;28.05;;;;;;;20.23;45.26;101231.84;5034978;28;20088;-78
2022/06/01 04:27:01;;;;;;;31.70;29.90;;;;;;;20.24;45.25;101228.00;5050200;28;20065;-78
2022/06/01 04:29:26;;;;;;;31.25;29.45;;;;;;;20.26;45.21;101230.44;5034883;28;20067;-77
2022/06/01 04:32:07;;;;;;;29.83;28.23;;;;;;;20.26;45.11;101227.69;5016917;28;20057;-81
2022/06/01 04:34:32;;;;;;;31.27;29.67;;;;;;;20.27;45.56;101240.31;5033411;28;20048;-77
2022/06/01 04:36:58;;;;;;;30.90;29.30;;;;;;;20.28;45.46;101229.03;5049917;28;20452;-77
2022/06/01 04:39:24;;;;;;;30.90;28.95;;;;;;;20.29;45.35;101229.88;5049842;28;20095;-78
2022/06/01 04:41:49;;;;;;;29.75;28.15;;;;;;;20.31;45.29;101252.34;5033425;28;20041;-77
2022/06/01 04:44:15;;;;;;;28.85;27.35;;;;;;;20.31;45.03;101252.34;5034597;28;20436;-78
2022/06/01 04:46:40;;;;;;;30.40;28.70;;;;;;;20.30;45.16;101243.28;5049670;28;20530;-78
2022/06/01 04:49:07;;;;;;;29.38;27.80;;;;;;;20.32;45.18;101240.25;5049589;28;20167;-78
2022/06/01 04:51:36;;;;;;;29.52;27.92;;;;;;;20.30;44.87;101237.78;5033360;28;20401;-78
2022/06/01 04:54:01;;;;;;;30.30;28.58;;;;;;;20.31;45.18;101235.88;5049890;28;20420;-77
2022/06/01 04:56:27;;;;;;;29.30;27.50;;;;;;;20.32;45.07;101237.50;5033191;28;20029;-77
2022/06/01 04:58:53;;;;;;;29.25;27.65;;;;;;;20.31;45.33;101239.44;5048599;28;20374;-77
2022/06/01 05:01:18;;;;;;;29.50;27.90;;;;;;;20.32;45.25;101237.50;5033685;28;20033;-78
2022/06/01 05:03:43;;;;;;;29.25;27.75;;;;;;;20.33;45.26;101244.59;5032874;28;20026;-77
2022/06/01 05:06:09;;;;;;;29.63;27.92;;;;;;;20.34;45.16;101248.19;5049036;28;20065;-77
2022/06/01 05:08:34;;;;;;;29.40;27.70;;;;;;;20.33;44.93;101239.13;5033947;28;20116;-77
2022/06/01 05:11:00;;;;;;;30.35;28.67;;;;;;;20.35;45.31;101238.84;5032849;28;20034;-78
2022/06/01 05:13:25;;;;;;;28.70;27.30;;;;;;;20.34;44.80;101234.47;5034144;28;20113;-77
2022/06/01 05:15:56;;;;;;;28.00;26.50;;;;;;;20.35;45.01;101236.09;5033727;28;20048;-77
2022/06/01 05:18:23;;;;;;;29.30;27.70;;;;;;;20.35;44.87;101242.38;5032583;28;20087;-78
2022/06/01 05:20:48;;;;;;;29.52;27.67;;;;;;;20.35;45.12;101247.88;5032724;28;20041;-77
2022/06/01 05:23:17;;;;;;;30.45;28.52;;;;;;;20.37;44.86;101250.34;5032505;28;20465;-77
2022/06/01 05:25:44;;;;;;;29.92;28.30;;;;;;;20.37;45.02;101244.84;5033144;28;20377;-76
2022/06/01 05:28:10;;;;;;;30.20;28.45;;;;;;;20.37;45.22;101253.88;5032264;28;20389;-76
2022/06/01 05:30:35;;;;;;;29.33;27.80;;;;;;;20.37;45.50;101248.41;5033954;28;20029;-76
2022/06/01 05:33:00;;;;;;;30.27;28.73;;;;;;;20.39;45.70;101256.34;5033609;28;20124;-81
2022/06/01 05:35:27;;;;;;;33.35;30.58;;;;;;;20.43;46.71;101247.19;5032307;28;20094;-76
2022/06/01 05:37:52;;;;;;;84.55;45.45;;;;;;;20.45;48.07;101249.66;5032205;28;20025;-76
2022/06/01 05:40:18;;;;;;;55.72;41.17;;;;;;;20.47;48.27;101252.94;5032214;28;20103;-79
2022/06/01 05:42:43;;;;;;;60.50;39.80;;;;;;;20.46;48.53;101248.53;5033210;28;20041;-77
2022/06/01 05:45:10;;;;;;;54.42;39.67;;;;;;;20.44;47.97;101243.38;5033235;28;20025;-77
2022/06/01 05:47:37;;;;;;;48.15;39.22;;;;;;;20.45;47.71;101252.41;5048681;28;20040;-76
2022/06/01 05:50:03;;;;;;;53.50;36.17;;;;;;;20.43;47.19;101247.19;5033522;28;20033;-81
2022/06/01 05:52:29;;;;;;;38.90;32.22;;;;;;;20.44;47.23;101245.31;5033181;28;20497;-76
2022/06/01 05:54:54;;;;;;;36.80;33.10;;;;;;;20.44;46.62;101243.38;5033334;28;20030;-78
2022/06/01 05:57:20;;;;;;;38.05;34.03;;;;;;;20.44;46.84;101256.28;5033269;28;20121;-78
2022/06/01 05:59:46;;;;;;;36.15;32.58;;;;;;;20.44;46.59;101257.09;5032292;28;20060;-78
2022/06/01 06:02:19;;;;;;;34.50;31.40;;;;;;;20.43;46.58;101266.41;5049310;28;20038;-78
2022/06/01 06:04:44;;;;;;;33.00;29.92;;;;;;;20.41;46.84;101260.44;5032102;28;20037;-78
2022/06/01 06:07:13;;;;;;;33.17;30.02;;;;;;;20.40;46.75;101263.47;5033947;28;20039;-78
2022/06/01 06:09:39;;;;;;;34.03;30.88;;;;;;;20.39;46.38;101262.66;5033680;28;20549;-78
2022/06/01 06:12:04;;;;;;;32.88;30.25;;;;;;;20.41;46.61;101260.44;5036101;28;20137;-83
2022/06/01 06:14:30;;;;;;;31.90;29.27;;;;;;;20.41;46.77;101254.09;5019315;28;20540;-79
2022/06/01 06:16:56;;;;;;;33.05;30.30;;;;;;;20.42;47.16;101259.31;5035865;28;20073;-81
2022/06/01 06:19:21;;;;;;;34.08;31.35;;;;;;;20.46;46.95;101259.50;5018550;28;20041;-80
2022/06/01 06:21:47;;;;;;;33.20;30.70;;;;;;;20.43;47.71;101265.59;5039731;28;20025;-79
2022/06/01 06:24:16;;;;;;;32.85;30.35;;;;;;;20.49;47.51;101264.44;5036062;28;20037;-81
2022/06/01 06:26:46;;;;;;;33.60;30.80;;;;;;;20.55;47.17;101274.25;5036077;28;20025;-80
2022/06/01 06:29:14;;;;;;;33.55;30.85;;;;;;;20.57;47.63;101274.75;5035554;28;20021;-81
2022/06/01 06:31:40;;;;;;;32.78;30.35;;;;;;;20.57;48.01;101280.25;5035484;28;20033;-80
2022/06/01 06:34:06;;;;;;;31.30;28.98;;;;;;;20.59;47.55;101285.44;5035260;28;20096;-81
2022/06/01 06:36:31;;;;;;;31.30;29.15;;;;;;;20.62;48.05;101284.84;5035374;28;20037;-81
2022/06/01 06:38:57;;;;;;;31.23;28.67;;;;;;;20.62;48.02;101290.34;5018304;28;20045;-82
2022/06/01 06:41:23;;;;;;;32.42;30.05;;;;;;;20.64;47.77;101290.88;5036006;28;20033;-81
2022/06/01 06:43:49;;;;;;;31.95;29.35;;;;;;;20.66;47.81;101296.84;5035380;28;20032;-82
2022/06/01 06:46:17;;;;;;;31.05;29.13;;;;;;;20.69;47.66;101299.03;5036673;28;20029;-82
2022/06/01 06:48:48;;;;;;;30.77;28.63;;;;;;;20.69;47.66;101301.78;5036422;28;20045;-83
2022/06/01 06:51:14;;;;;;;33.65;31.02;;;;;;;20.72;47.97;101306.66;5035021;28;20539;-82
2022/06/01 06:53:39;;;;;;;31.17;28.67;;;;;;;20.72;47.92;101310.22;5051516;28;20030;-79
2022/06/01 06:56:05;;;;;;;30.85;28.83;;;;;;;20.78;48.04;101308.22;5051486;28;20105;-81
2022/06/01 06:58:31;;;;;;;33.50;31.08;;;;;;;20.75;48.05;101308.81;5034613;28;20470;-85
2022/06/01 07:00:57;;;;;;;33.40;31.00;;;;;;;20.77;48.79;101314.00;5036219;28;20044;-83
2022/06/01 07:03:22;;;;;;;32.28;30.05;;;;;;;20.78;48.95;101310.94;5051366;28;20120;-79
2022/06/01 07:08:32;;;;;;;30.83;29.00;;;;;;;20.75;48.23;101315.09;5036813;28;20052;-80
2022/06/01 07:10:58;;;;;;;31.65;29.52;;;;;;;20.72;47.45;101318.47;5051229;28;20108;-82
2022/06/01 07:13:24;;;;;;;32.45;30.33;;;;;;;20.67;48.50;101313.03;5051102;28;20038;-79
2022/06/01 07:16:03;;;;;;;31.45;29.55;;;;;;;20.68;47.95;101313.84;5035670;28;20029;-80
2022/06/01 07:18:29;;;;;;;31.63;29.42;;;;;;;20.70;48.85;101325.34;5036389;28;20033;-80
2022/06/01 07:20:54;;;;;;;32.05;29.75;;;;;;;20.69;48.81;101321.00;5033884;28;20160;-79
2022/06/01 07:23:20;;;;;;;32.83;30.90;;;;;;;20.70;48.18;101317.13;5035141;28;20034;-81
2022/06/01 07:25:45;;;;;;;31.95;29.75;;;;;;;20.69;48.31;101321.81;5034312;28;20056;-78
2022/06/01 07:28:11;;;;;;;31.55;29.25;;;;;;;20.70;47.95;101328.09;5033978;28;20124;-80
2022/06/01 07:30:36;;;;;;;34.08;31.70;;;;;;;20.73;48.77;101316.53;5035088;28;20030;-79
2022/06/01 07:33:01;;;;;;;31.63;29.73;;;;;;;20.75;48.10;101319.78;5035486;28;20029;-79
2022/06/01 07:35:27;;;;;;;32.95;30.90;;;;;;;20.77;47.99;101323.06;5034880;28;20030;-79
2022/06/01 07:43:21;;;;;;;31.45;29.58;;;;;;;20.77;47.70;101319.50;5035043;28;20504;-78
2022/06/01 07:45:49;;;;;;;31.70;29.67;;;;;;;20.78;47.71;101326.63;5035221;28;20057;-80
2022/06/01 07:48:16;;;;;;;32.17;30.42;;;;;;;20.79;47.35;101328.22;5033521;28;20120;-79
2022/06/01 07:50:43;;;;;;;33.92;31.85;;;;;;;20.76;47.18;101321.41;5034992;28;20117;-80
2022/06/01 07:53:09;;;;;;;30.83;28.90;;;;;;;20.78;47.79;101321.13;5034638;28;20025;-80
2022/06/01 07:55:36;;;;;;;32.97;30.88;;;;;;;20.81;47.49;101323.28;5050020;28;20040;-81
2022/06/01 07:58:02;;;;;;;30.88;29.17;;;;;;;20.82;47.29;101319.44;5049827;28;20123;-79
2022/06/01 08:00:31;;;;;;;33.13;30.95;;;;;;;20.82;46.62;101325.72;5035088;28;20053;-78
2022/06/01 08:02:57;;;;;;;32.00;30.02;;;;;;;20.86;46.79;101325.94;5034656;28;20025;-77
2022/06/01 08:05:22;;;;;;;32.63;30.58;;;;;;;20.83;46.96;101321.03;5034463;28;20491;-76
2022/06/01 08:07:48;;;;;;;32.90;30.98;;;;;;;20.83;46.96;101321.03;5049951;28;20078;-76
2022/06/01 08:10:18;;;;;;;34.05;32.13;;;;;;;20.86;47.03;101320.44;5034101;28;20401;-79
2022/06/01 08:15:28;;;;;;;31.60;29.60;;;;;;;20.89;47.32;101325.34;5033598;28;20460;-77
2022/06/01 08:17:54;;;;;;;30.65;28.95;;;;;;;20.88;46.65;101323.72;5034286;28;20029;-77
2022/06/01 08:20:20;;;;;;;32.28;30.25;;;;;;;20.89;46.65;101317.09;5034108;28;20064;-77
2022/06/01 08:22:45;;;;;;;31.85;29.83;;;;;;;20.90;47.08;101316.81;5050319;28;20160;-78
2022/06/01 08:25:13;;;;;;;32.25;30.25;;;;;;;20.90;46.91;101316.00;5017385;28;20116;-78
2022/06/01 08:27:39;;;;;;;32.38;30.38;;;;;;;20.90;46.57;101307.75;5032428;28;20052;-77
2022/06/01 08:30:05;;;;;;;30.23;28.50;;;;;;;20.94;46.85;101311.53;5049351;28;20030;-80
2022/06/01 08:32:30;;;;;;;33.50;31.60;;;;;;;20.96;47.05;101315.63;5033776;28;20171;-77
2022/06/01 08:34:56;;;;;;;31.02;29.33;;;;;;;20.98;46.79;101311.75;5016798;28;20120;-78
2022/06/01 08:37:21;;;;;;;30.58;28.88;;;;;;;20.98;46.57;101312.56;5033161;28;20083;-78
2022/06/01 08:39:47;;;;;;;30.38;28.73;;;;;;;20.94;46.22;101306.03;5048876;28;20513;-79
2022/06/01 08:42:16;;;;;;;30.30;28.65;;;;;;;20.93;46.75;101315.41;5049358;28;20044;-79
2022/06/01 08:44:45;;;;;;;31.08;29.25;;;;;;;20.92;46.66;101314.59;5033575;28;20469;-81
2022/06/01 08:47:20;;;;;;;31.70;29.95;;;;;;;20.92;46.82;101309.09;5033914;28;20040;-77
2022/06/01 08:49:45;;;;;;;31.10;29.00;;;;;;;20.92;46.42;101305.53;5033990;28;20037;-75
2022/06/01 08:52:12;;;;;;;31.30;29.60;;;;;;;20.88;46.45;101318.22;5033558;28;20113;-76
2022/06/01 08:54:37;;;;;;;32.65;30.67;;;;;;;20.89;46.05;101311.59;5033844;28;20125;-77
2022/06/01 08:57:09;;;;;;;31.73;30.02;;;;;;;20.93;46.34;101313.47;5033817;28;20064;-76
2022/06/01 08:59:51;;;;;;;31.83;29.95;;;;;;;20.94;46.43;101311.53;5034093;28;20052;-80
2022/06/01 09:02:38;;;;;;;30.85;29.25;;;;;;;21.00;46.69;101306.78;5034056;28;20350;-76
2022/06/01 09:05:33;;;;;;;32.95;31.08;;;;;;;20.97;46.96;101305.47;5033528;28;20508;-77
2022/06/01 09:08:07;;;;;;;33.03;30.60;;;;;;;20.96;46.72;101306.56;5033845;28;20045;-80
2022/06/01 09:10:51;;;;;;;32.75;30.70;;;;;;;20.92;46.17;101311.84;5033734;28;20108;-80
2022/06/01 09:13:24;;;;;;;32.33;30.33;;;;;;;20.94;46.48;101314.28;5034169;28;20025;-77
2022/06/01 09:16:02;;;;;;;31.17;29.35;;;;;;;20.98;45.71;101318.06;5032475;28;20095;-75
2022/06/01 09:18:32;;;;;;;32.58;30.45;;;;;;;20.98;45.42;101323.56;5033645;28;20108;-76
2022/06/01 09:23:42;;;;;;;30.08;28.45;;;;;;;20.96;45.95;101320.28;5033672;28;20087;-77
2022/06/01 09:26:08;;;;;;;30.52;28.77;;;;;;;20.95;46.00;101333.22;5033132;28;20037;-77
2022/06/01 09:28:41;;;;;;;32.30;30.35;;;;;;;20.94;46.05;101337.09;5033197;28;20458;-80
2022/06/01 09:31:23;;;;;;;31.33;29.52;;;;;;;20.95;45.81;101335.16;5033193;28;20036;-78
2022/06/01 09:33:49;;;;;;;31.80;30.05;;;;;;;20.94;45.61;101353.56;5034104;28;20037;-77
2022/06/01 09:36:26;;;;;;;33.03;30.98;;;;;;;20.93;45.79;101362.09;5048620;28;20532;-78
2022/06/01 09:38:58;;;;;;;31.77;29.98;;;;;;;20.89;45.40;101361.88;5034083;28;20045;-85
2022/06/01 09:41:40;;;;;;;32.08;29.52;;;;;;;20.91;45.49;101359.63;5033791;28;20029;-77
2022/06/01 09:44:07;;;;;;;30.38;28.67;;;;;;;20.90;46.05;101368.19;5032907;28;20030;-75
2022/06/01 09:46:52;;;;;;;31.83;30.02;;;;;;;20.91;46.12;101367.06;5031884;28;20040;-77
2022/06/01 09:49:17;;;;;;;31.42;29.77;;;;;;;20.90;46.27;101373.66;5033639;28;20030;-78
2022/06/01 09:51:44;;;;;;;29.88;28.27;;;;;;;20.89;46.66;101383.00;5032753;28;20458;-75
2022/06/01 09:54:14;;;;;;;32.45;30.58;;;;;;;20.92;46.76;101383.25;5031656;28;20041;-77
2022/06/01 09:56:47;;;;;;;30.90;29.30;;;;;;;20.92;46.51;101379.69;5032960;28;20121;-79
2022/06/01 10:08:22;;;;;;;33.42;31.45;;;;;;;20.93;47.20;101387.59;5031780;28;20056;-79
2022/06/01 10:11:11;;;;;;;31.02;29.42;;;;;;;20.94;46.99;101383.75;5033100;28;20029;-78
2022/06/01 10:13:46;;;;;;;32.20;30.30;;;;;;;20.94;47.74;101388.41;5032064;28;20030;-79
2022/06/01 10:16:19;;;;;;;30.67;28.83;;;;;;;20.92;47.09;101382.44;5033339;28;20037;-78
2022/06/01 10:18:47;;;;;;;33.00;30.75;;;;;;;20.95;47.13;101379.09;5032784;28;20037;-78
2022/06/01 10:21:17;;;;;;;30.83;29.23;;;;;;;20.92;47.12;101380.50;5032737;28;20030;-79
2022/06/01 10:23:54;;;;;;;30.35;28.70;;;;;;;20.91;47.35;101387.09;5037386;28;20119;-79
2022/06/01 10:26:31;;;;;;;31.33;29.73;;;;;;;20.94;47.06;101392.00;5033735;28;20037;-80
2022/06/01 10:29:03;;;;;;;29.55;28.02;;;;;;;20.93;47.22;101389.53;5032470;28;20381;-80
2022/06/01 10:31:44;;;;;;;30.38;28.77;;;;;;;20.93;47.51;101401.34;5032385;28;20385;-78
2022/06/01 10:34:41;;;;;;;31.55;29.90;;;;;;;20.92;47.09;101409.91;5033199;28;20040;-78
2022/06/01 10:37:33;;;;;;;30.10;28.50;;;;;;;20.96;47.08;101410.91;5031315;28;20045;-79
2022/06/01 10:40:12;;;;;;;29.92;28.30;;;;;;;20.99;47.09;101409.50;5031088;28;20057;-80
2022/06/01 10:43:16;;;;;;;29.98;28.40;;;;;;;20.99;46.88;101413.09;5032452;28;20034;-79
2022/06/01 10:45:52;;;;;;;32.00;30.30;;;;;;;21.00;46.81;101414.72;5032358;28;20026;-79
2022/06/01 10:48:30;;;;;;;30.67;29.00;;;;;;;21.01;46.76;101408.09;5032952;28;20033;-78
2022/06/01 10:50:55;;;;;;;29.33;27.88;;;;;;;21.03;46.65;101402.31;5032476;28;20029;-78
2022/06/01 10:53:45;;;;;;;29.55;27.95;;;;;;;21.04;46.60;101395.69;5032338;28;20095;-77
2022/06/01 10:56:12;;;;;;;31.33;29.63;;;;;;;21.03;47.02;101396.81;5033144;28;20481;-77
2022/06/01 10:58:38;;;;;;;30.95;29.25;;;;;;;21.05;46.98;101386.38;5035991;28;20079;-78
2022/06/01 11:01:07;;;;;;;29.83;28.35;;;;;;;21.04;46.96;101390.19;5051378;28;20221;-77
2022/06/01 11:03:54;;;;;;;31.23;29.42;;;;;;;21.04;46.81;101391.03;5034983;28;20030;-78
2022/06/01 11:06:50;;;;;;;30.02;28.52;;;;;;;21.05;46.85;101392.66;5036030;28;20048;-79
2022/06/01 11:10:00;;;;;;;31.10;29.50;;;;;;;21.05;47.06;101391.84;5034396;28;20022;-79
2022/06/01 11:12:56;;;;;;;29.92;28.42;;;;;;;21.08;46.78;101396.75;5035368;28;20116;-79
2022/06/01 11:15:29;;;;;;;30.88;29.27;;;;;;;21.09;47.20;101390.97;5035671;28;20065;-78
2022/06/01 11:18:12;;;;;;;29.48;27.98;;;;;;;21.10;47.15;101389.84;5034605;28;20033;-77
2022/06/01 11:20:57;;;;;;;31.42;29.83;;;;;;;21.12;46.84;101384.88;5035869;28;20040;-80
2022/06/01 11:23:49;;;;;;;29.98;28.40;;;;;;;21.13;47.16;101386.50;5034583;28;20455;-78
2022/06/01 11:26:59;;;;;;;31.88;30.17;;;;;;;21.15;47.13;101383.47;5035579;28;20025;-78
2022/06/01 11:29:24;;;;;;;29.77;28.27;;;;;;;21.18;46.92;101377.34;5035352;28;20036;-79
2022/06/01 11:31:56;;;;;;;30.70;29.10;;;;;;;21.21;46.81;101375.94;5035220;28;20037;-81
2022/06/01 11:34:41;;;;;;;30.80;29.27;;;;;;;21.24;47.16;101378.91;5035916;28;20033;-79
2022/06/01 11:37:39;;;;;;;31.63;29.98;;;;;;;21.25;47.15;101385.22;5034862;28;20061;-80
2022/06/01 11:40:08;;;;;;;30.55;28.95;;;;;;;21.24;47.20;101381.66;5029961;28;20501;-79
2022/06/01 11:42:47;;;;;;;30.65;29.15;;;;;;;21.21;47.13;101392.44;5033989;28;20068;-81
2022/06/01 11:45:20;;;;;;;30.20;28.50;;;;;;;21.24;47.62;101389.06;5034794;28;20056;-78
2022/06/01 11:47:53;;;;;;;31.33;29.73;;;;;;;21.23;47.64;101384.72;5034961;28;20033;-75
2022/06/01 11:50:48;;;;;;;30.95;29.35;;;;;;;21.25;47.46;101394.28;5034470;28;20029;-80
2022/06/01 11:53:21;;;;;;;30.73;29.13;;;;;;;21.28;46.93;101390.13;5033682;28;20049;-76
2022/06/01 11:55:49;;;;;;;32.15;30.38;;;;;;;21.29;46.95;101389.00;5034321;28;20037;-77